Triumph, Idaho
Current Conditions -  °F | °C
As of 2:55 PM on Saturday 25 Oct 2014 (Local Time) from KSUN Reporting Station
Overcast Overcast  
Wind Chill: 64°   Ceiling: 14000
Heat Index: 64°   Visibility: 10mi
Dew Point: 37°   Wind: 6mph
Humidity: 37%   Direction: 100°E
Pressure: 29.95"   Gusts: NA
Location:  43.571°N, 114.16°W
Report Text: KSUN 252055Z 10005KT 10SM OVC140 18/03 A2995
Loading
Personal Weather Stations






























Interactive Weather Map
Tropical Storm Tracking
New forecast layout! Learn more

10-Day Weather Forecast

Advertisements
Track Severe Weather on mobile